Arklow Mill — EIJD9 — position and weather

sailwx.info

Track history (hours):
 
Tides and Currents Weather Stations Pressure Air Temp Water Temp Dewpoint Dewpoint Depression Visibility Wind Speed Wind Dir Waves Ship Positions

Arklow Mill

Last reported at 2014-Oct-30 14:19 UTC. Time now 2014-Oct-30 15:55 UTC.
Position N 52°35' W 009°39'.

Length 137 m; draft 8.4 m.

Type: Ship. MMSI: 250002022.

Date/timePositionNaut miles runAvg speedWind from/ knotsBaromVisibWave heightAir tempDewpointWater temp
2014-Oct-30 14:19N 52°35' W 009°39'6 7.4
2014-Oct-30 13:32N 52°32' W 009°47'8 8.5
2014-Oct-30 12:33N 52°27' W 009°59'7 7.6
2014-Oct-30 11:33N 52°23' W 010°09'4 3.6
2014-Oct-30 10:33N 52°21' W 010°13'9 8.7
2014-Oct-30 09:32N 52°15' W 010°25'9 9.2
2014-Oct-30 08:33N 52°10' W 010°36'1010.4
2014-Oct-30 07:33N 52°01' W 010°44'1312.1
2014-Oct-30 06:29N 51°48' W 010°39'27611.9
2014-Oct-29 07:12N 50°03' W 003°53'813.0
2014-Oct-29 06:33N 50°05' W 003°41'1414.0
2014-Oct-29 05:33N 50°07' W 003°19'1514.8
2014-Oct-29 04:33N 50°10' W 002°56'1515.3
2014-Oct-29 03:33N 50°13' W 002°33'4313.5
2014-Oct-29 00:23N 50°21' W 001°27'910.8
2014-Oct-28 23:33N 50°23' W 001°13'1110.3
2014-Oct-28 22:30N 50°25' W 000°57'1111.1
2014-Oct-28 21:33N 50°27' W 000°40'1212.4
2014-Oct-28 20:33N 50°29' W 000°21'1413.7
2014-Oct-28 19:33N 50°33' W 000°01'1414.3
2014-Oct-28 18:33N 50°37' E 000°21'1413.9
2014-Oct-28 17:33N 50°42' E 000°41'1312.4
2014-Oct-28 16:33N 50°49' E 000°58'1211.3
2014-Oct-28 15:31N 50°56' E 001°12'9 9.8
2014-Oct-28 14:33N 51°02' E 001°23'10 9.9
2014-Oct-28 13:33N 51°06' E 001°38'1212.4
2014-Oct-28 12:33N 51°02' E 001°56'9 9.1
2014-Oct-28 11:33N 51°00' E 002°11'0 0.0
2014-Oct-28 10:32N 51°00' E 002°11'0 0.0
2014-Oct-28 09:20N 51°00' E 002°11'0 0.0
2014-Oct-28 08:29N 51°00' E 002°11'0 0.0
2014-Oct-28 07:23N 51°00' E 002°11'0 0.0
2014-Oct-28 06:32N 51°00' E 002°11'0 0.0
2014-Oct-28 05:32N 51°00' E 002°11'0 0.0
2014-Oct-28 04:20N 51°00' E 002°11'0 0.0
2014-Oct-28 03:32N 51°00' E 002°11'0 0.0
2014-Oct-28 02:32N 51°00' E 002°11'0 0.0
2014-Oct-28 01:32N 51°00' E 002°11'0 0.0
2014-Oct-28 00:32N 51°00' E 002°11'0 0.0
2014-Oct-27 23:29N 51°00' E 002°11'0 0.0
2014-Oct-27 22:26N 51°00' E 002°11'0 0.0
2014-Oct-27 21:29N 51°00' E 002°11'0 0.0
2014-Oct-27 20:32N 51°00' E 002°11'0 0.0
2014-Oct-27 19:32N 51°00' E 002°11'0 0.0
2014-Oct-27 18:32N 51°00' E 002°11'0 0.0
2014-Oct-27 17:32N 51°00' E 002°11'0 0.0
2014-Oct-27 16:32N 51°00' E 002°11'0 0.0
2014-Oct-27 15:29N 51°00' E 002°11'0 0.0
2014-Oct-27 14:32N 51°00' E 002°11'0 0.0
2014-Oct-27 13:23N 51°00' E 002°11'0 0.0
2014-Oct-27 12:29N 51°00' E 002°11'0 0.0
2014-Oct-27 11:32N 51°00' E 002°11'0 0.0
2014-Oct-27 10:32N 51°00' E 002°11'0 0.0
2014-Oct-27 09:32N 51°00' E 002°11'0 0.0
2014-Oct-27 08:29N 51°00' E 002°11'0 0.0
2014-Oct-27 07:29N 51°00' E 002°11'0 0.0
2014-Oct-27 06:32N 51°00' E 002°11'0 0.0
2014-Oct-27 05:26N 51°00' E 002°11'0 0.0
2014-Oct-27 04:26N 51°00' E 002°11'0 0.0
2014-Oct-27 03:32N 51°00' E 002°11'0 0.0
2014-Oct-27 02:23N 51°00' E 002°11'0 0.0
2014-Oct-27 01:17N 51°00' E 002°11'0 0.0
2014-Oct-27 00:32N 51°00' E 002°11'0 0.0
2014-Oct-26 23:33N 51°00' E 002°11'0 0.0
2014-Oct-26 22:32N 51°00' E 002°11'0 0.0
2014-Oct-26 21:32N 51°00' E 002°11'0 0.0
2014-Oct-26 20:26N 51°00' E 002°11'0 0.0
2014-Oct-26 19:32N 51°00' E 002°11'0 0.0
2014-Oct-26 18:26N 51°00' E 002°11'0 0.0
2014-Oct-26 17:32N 51°00' E 002°11'0 0.0
2014-Oct-26 16:14N 51°00' E 002°11'0 0.0
2014-Oct-26 15:26N 51°00' E 002°11'0 0.0
2014-Oct-26 14:32N 51°00' E 002°11'0 0.0
2014-Oct-26 13:29N 51°00' E 002°11'0 0.0
2014-Oct-26 12:32N 51°00' E 002°11'0 0.0
2014-Oct-26 11:32N 51°00' E 002°11'0 0.0
2014-Oct-26 10:32N 51°00' E 002°11'0 0.0
2014-Oct-26 09:26N 51°00' E 002°11'0 0.0
2014-Oct-26 08:32N 51°00' E 002°11'0 0.0
2014-Oct-26 07:29N 51°00' E 002°11'0 0.0
2014-Oct-26 06:23N 51°00' E 002°11'0 0.0
2014-Oct-26 05:29N 51°00' E 002°11'0 0.0
2014-Oct-26 04:20N 51°00' E 002°11'0 0.0
2014-Oct-26 03:05N 51°00' E 002°11'0 0.0
2014-Oct-26 02:26N 51°00' E 002°11'0 0.0
2014-Oct-26 01:32N 51°00' E 002°11'0 0.0
2014-Oct-26 00:32N 51°00' E 002°11'0 0.0
2014-Oct-25 23:32N 51°00' E 002°11'0 0.0
2014-Oct-25 22:32N 51°00' E 002°11'0 0.0
2014-Oct-25 21:23N 51°00' E 002°11'0 0.0
2014-Oct-25 20:32N 51°00' E 002°11'0 0.0
2014-Oct-25 19:29N 51°00' E 002°11'0 0.0
2014-Oct-25 18:29N 51°00' E 002°11'0 0.0
2014-Oct-25 17:32N 51°00' E 002°11'0 0.0
2014-Oct-25 16:32N 51°00' E 002°11'0 0.0
2014-Oct-25 15:32N 51°00' E 002°11'0 0.0
2014-Oct-25 14:32N 51°00' E 002°11'0 0.0
2014-Oct-25 13:23N 51°00' E 002°11'2 2.2
2014-Oct-25 12:33N 51°02' E 002°10'1211.9
2014-Oct-25 11:33N 51°03' E 001°51'1 1.2
2014-Oct-25 10:31N 51°03' E 001°50'0 0.2
2014-Oct-25 09:19N 51°03' E 001°49'0 0.0
2014-Oct-25 08:04N 51°03' E 001°49'0 0.0
2014-Oct-25 07:31N 51°03' E 001°49'0 0.0
2014-Oct-25 06:31N 51°03' E 001°49'0 0.0
2014-Oct-25 05:31N 51°03' E 001°49'0 0.1
2014-Oct-25 04:31N 51°03' E 001°49'0 0.1
2014-Oct-25 03:31N 51°03' E 001°50'0 0.0
2014-Oct-25 02:31N 51°04' E 001°50'0 0.0
2014-Oct-25 01:31N 51°04' E 001°50'0 0.0
2014-Oct-25 00:31N 51°03' E 001°50'0 0.0
2014-Oct-24 23:31N 51°03' E 001°50'0 0.0
2014-Oct-24 22:33N 51°03' E 001°50'0 0.2
2014-Oct-24 21:33N 51°03' E 001°49'6 5.9
2014-Oct-24 20:33N 51°01' E 001°41'8 8.1
2014-Oct-24 19:33N 50°55' E 001°32'17011.1
2014-Oct-24 04:15N 50°12' W 002°47'811.0
2014-Oct-24 03:33N 50°10' W 002°58'1110.6
2014-Oct-24 02:33N 50°08' W 003°14'1010.0
2014-Oct-24 01:33N 50°05' W 003°30'11 9.6
2014-Oct-24 00:27N 50°03' W 003°46'28810.0
2014-Oct-22 19:32N 52°09' W 010°39'1210.7
2014-Oct-22 18:26N 52°16' W 010°23'910.3
2014-Oct-22 17:32N 52°21' W 010°10'1210.0
2014-Oct-22 16:18N 52°29' W 009°54'  
Track history (hours):
 
Tides and Currents Weather Stations Pressure Air Temp Water Temp Dewpoint Dewpoint Depression Visibility Wind Speed Wind Dir Waves Ship Positions

Arklow Mill

Last reported at 2014-Oct-30 14:19 UTC. Time now 2014-Oct-30 15:55 UTC.
Position N 52°35' W 009°39'.

Length 137 m; draft 8.4 m.

Type: Ship. MMSI: 250002022.

Date/timePositionNaut miles runAvg speedWind from/ knotsBaromVisibWave heightAir tempDewpointWater temp
2014-Oct-30 14:19N 52°35' W 009°39'6 7.4
2014-Oct-30 13:32N 52°32' W 009°47'8 8.5
2014-Oct-30 12:33N 52°27' W 009°59'7 7.6
2014-Oct-30 11:33N 52°23' W 010°09'4 3.6
2014-Oct-30 10:33N 52°21' W 010°13'9 8.7
2014-Oct-30 09:32N 52°15' W 010°25'9 9.2
2014-Oct-30 08:33N 52°10' W 010°36'1010.4
2014-Oct-30 07:33N 52°01' W 010°44'1312.1
2014-Oct-30 06:29N 51°48' W 010°39'27611.9
2014-Oct-29 07:12N 50°03' W 003°53'813.0
2014-Oct-29 06:33N 50°05' W 003°41'1414.0
2014-Oct-29 05:33N 50°07' W 003°19'1514.8
2014-Oct-29 04:33N 50°10' W 002°56'1515.3
2014-Oct-29 03:33N 50°13' W 002°33'4313.5
2014-Oct-29 00:23N 50°21' W 001°27'910.8
2014-Oct-28 23:33N 50°23' W 001°13'1110.3
2014-Oct-28 22:30N 50°25' W 000°57'1111.1
2014-Oct-28 21:33N 50°27' W 000°40'1212.4
2014-Oct-28 20:33N 50°29' W 000°21'1413.7
2014-Oct-28 19:33N 50°33' W 000°01'1414.3
2014-Oct-28 18:33N 50°37' E 000°21'1413.9
2014-Oct-28 17:33N 50°42' E 000°41'1312.4
2014-Oct-28 16:33N 50°49' E 000°58'1211.3
2014-Oct-28 15:31N 50°56' E 001°12'9 9.8
2014-Oct-28 14:33N 51°02' E 001°23'10 9.9
2014-Oct-28 13:33N 51°06' E 001°38'1212.4
2014-Oct-28 12:33N 51°02' E 001°56'9 9.1
2014-Oct-28 11:33N 51°00' E 002°11'0 0.0
2014-Oct-28 10:32N 51°00' E 002°11'0 0.0
2014-Oct-28 09:20N 51°00' E 002°11'0 0.0
2014-Oct-28 08:29N 51°00' E 002°11'0 0.0
2014-Oct-28 07:23N 51°00' E 002°11'0 0.0
2014-Oct-28 06:32N 51°00' E 002°11'0 0.0
2014-Oct-28 05:32N 51°00' E 002°11'0 0.0
2014-Oct-28 04:20N 51°00' E 002°11'0 0.0
2014-Oct-28 03:32N 51°00' E 002°11'0 0.0
2014-Oct-28 02:32N 51°00' E 002°11'0 0.0
2014-Oct-28 01:32N 51°00' E 002°11'0 0.0
2014-Oct-28 00:32N 51°00' E 002°11'0 0.0
2014-Oct-27 23:29N 51°00' E 002°11'0 0.0
2014-Oct-27 22:26N 51°00' E 002°11'0 0.0
2014-Oct-27 21:29N 51°00' E 002°11'0 0.0
2014-Oct-27 20:32N 51°00' E 002°11'0 0.0
2014-Oct-27 19:32N 51°00' E 002°11'0 0.0
2014-Oct-27 18:32N 51°00' E 002°11'0 0.0
2014-Oct-27 17:32N 51°00' E 002°11'0 0.0
2014-Oct-27 16:32N 51°00' E 002°11'0 0.0
2014-Oct-27 15:29N 51°00' E 002°11'0 0.0
2014-Oct-27 14:32N 51°00' E 002°11'0 0.0
2014-Oct-27 13:23N 51°00' E 002°11'0 0.0
2014-Oct-27 12:29N 51°00' E 002°11'0 0.0
2014-Oct-27 11:32N 51°00' E 002°11'0 0.0
2014-Oct-27 10:32N 51°00' E 002°11'0 0.0
2014-Oct-27 09:32N 51°00' E 002°11'0 0.0
2014-Oct-27 08:29N 51°00' E 002°11'0 0.0
2014-Oct-27 07:29N 51°00' E 002°11'0 0.0
2014-Oct-27 06:32N 51°00' E 002°11'0 0.0
2014-Oct-27 05:26N 51°00' E 002°11'0 0.0
2014-Oct-27 04:26N 51°00' E 002°11'0 0.0
2014-Oct-27 03:32N 51°00' E 002°11'0 0.0
2014-Oct-27 02:23N 51°00' E 002°11'0 0.0
2014-Oct-27 01:17N 51°00' E 002°11'0 0.0
2014-Oct-27 00:32N 51°00' E 002°11'0 0.0
2014-Oct-26 23:33N 51°00' E 002°11'0 0.0
2014-Oct-26 22:32N 51°00' E 002°11'0 0.0
2014-Oct-26 21:32N 51°00' E 002°11'0 0.0
2014-Oct-26 20:26N 51°00' E 002°11'0 0.0
2014-Oct-26 19:32N 51°00' E 002°11'0 0.0
2014-Oct-26 18:26N 51°00' E 002°11'0 0.0
2014-Oct-26 17:32N 51°00' E 002°11'0 0.0
2014-Oct-26 16:14N 51°00' E 002°11'0 0.0
2014-Oct-26 15:26N 51°00' E 002°11'0 0.0
2014-Oct-26 14:32N 51°00' E 002°11'0 0.0
2014-Oct-26 13:29N 51°00' E 002°11'0 0.0
2014-Oct-26 12:32N 51°00' E 002°11'0 0.0
2014-Oct-26 11:32N 51°00' E 002°11'0 0.0
2014-Oct-26 10:32N 51°00' E 002°11'0 0.0
2014-Oct-26 09:26N 51°00' E 002°11'0 0.0
2014-Oct-26 08:32N 51°00' E 002°11'0 0.0
2014-Oct-26 07:29N 51°00' E 002°11'0 0.0
2014-Oct-26 06:23N 51°00' E 002°11'0 0.0
2014-Oct-26 05:29N 51°00' E 002°11'0 0.0
2014-Oct-26 04:20N 51°00' E 002°11'0 0.0
2014-Oct-26 03:05N 51°00' E 002°11'0 0.0
2014-Oct-26 02:26N 51°00' E 002°11'0 0.0
2014-Oct-26 01:32N 51°00' E 002°11'0 0.0
2014-Oct-26 00:32N 51°00' E 002°11'0 0.0
2014-Oct-25 23:32N 51°00' E 002°11'0 0.0
2014-Oct-25 22:32N 51°00' E 002°11'0 0.0
2014-Oct-25 21:23N 51°00' E 002°11'0 0.0
2014-Oct-25 20:32N 51°00' E 002°11'0 0.0
2014-Oct-25 19:29N 51°00' E 002°11'0 0.0
2014-Oct-25 18:29N 51°00' E 002°11'0 0.0
2014-Oct-25 17:32N 51°00' E 002°11'0 0.0
2014-Oct-25 16:32N 51°00' E 002°11'0 0.0
2014-Oct-25 15:32N 51°00' E 002°11'0 0.0
2014-Oct-25 14:32N 51°00' E 002°11'0 0.0
2014-Oct-25 13:23N 51°00' E 002°11'2 2.2
2014-Oct-25 12:33N 51°02' E 002°10'1211.9
2014-Oct-25 11:33N 51°03' E 001°51'1 1.2
2014-Oct-25 10:31N 51°03' E 001°50'0 0.2
2014-Oct-25 09:19N 51°03' E 001°49'0 0.0
2014-Oct-25 08:04N 51°03' E 001°49'0 0.0
2014-Oct-25 07:31N 51°03' E 001°49'0 0.0
2014-Oct-25 06:31N 51°03' E 001°49'0 0.0
2014-Oct-25 05:31N 51°03' E 001°49'0 0.1
2014-Oct-25 04:31N 51°03' E 001°49'0 0.1
2014-Oct-25 03:31N 51°03' E 001°50'0 0.0
2014-Oct-25 02:31N 51°04' E 001°50'0 0.0
2014-Oct-25 01:31N 51°04' E 001°50'0 0.0
2014-Oct-25 00:31N 51°03' E 001°50'0 0.0
2014-Oct-24 23:31N 51°03' E 001°50'0 0.0
2014-Oct-24 22:33N 51°03' E 001°50'0 0.2
2014-Oct-24 21:33N 51°03' E 001°49'6 5.9
2014-Oct-24 20:33N 51°01' E 001°41'8 8.1
2014-Oct-24 19:33N 50°55' E 001°32'17011.1
2014-Oct-24 04:15N 50°12' W 002°47'811.0
2014-Oct-24 03:33N 50°10' W 002°58'1110.6
2014-Oct-24 02:33N 50°08' W 003°14'1010.0
2014-Oct-24 01:33N 50°05' W 003°30'11 9.6
2014-Oct-24 00:27N 50°03' W 003°46'28810.0
2014-Oct-22 19:32N 52°09' W 010°39'1210.7
2014-Oct-22 18:26N 52°16' W 010°23'910.3
2014-Oct-22 17:32N 52°21' W 010°10'1210.0
2014-Oct-22 16:18N 52°29' W 009°54'  

Dump ship's entire track history